Time;durP1;ratioP1;P1;durP2;ratioP2;P2;SDS_P1;SDS_P2;PMS_P1;PMS_P2;Temp;Humidity;BMP_temperature;BMP_pressure;BME280_temperature;BME280_humidity;BME280_pressure;Samples;Min_cycle;Max_cycle;Signal;HPM_P1;HPM_P2
2021/11/01 00:01:36;;;;;;;;;;;9.50;1.00;;;;;;4990300;28;19949;-71
2021/11/01 00:04:04;;;;;;;;;;;9.50;1.00;;;;;;4989891;28;19972;-71
2021/11/01 00:06:30;;;;;;;;;;;9.50;1.00;;;;;;4990833;28;19914;-71
2021/11/01 00:08:56;;;;;;;;;;;9.50;1.00;;;;;;4990615;28;19969;-71
2021/11/01 00:11:21;;;;;;;;;;;9.50;1.00;;;;;;4990109;28;19922;-71
2021/11/01 00:13:47;;;;;;;;;;;9.50;1.00;;;;;;4990326;28;19976;-71
2021/11/01 00:16:12;;;;;;;;;;;9.50;1.00;;;;;;4990370;28;19945;-71
2021/11/01 00:18:38;;;;;;;;;;;9.40;1.00;;;;;;4990693;28;19910;-71
2021/11/01 00:21:03;;;;;;;;;;;9.40;1.00;;;;;;4990332;28;19937;-71
2021/11/01 00:23:29;;;;;;;;;;;9.40;1.00;;;;;;4989829;28;19968;-71
2021/11/01 00:25:54;;;;;;;;;;;9.50;1.00;;;;;;4989544;28;20331;-71
2021/11/01 00:28:20;;;;;;;;;;;9.50;1.00;;;;;;4991148;28;19921;-71
2021/11/01 00:30:46;;;;;;;;;;;9.50;1.00;;;;;;4989499;28;20016;-71
2021/11/01 00:33:12;;;;;;;;;;;9.50;1.00;;;;;;4989722;28;20032;-71
2021/11/01 00:35:38;;;;;;;;;;;9.60;1.00;;;;;;4989690;28;20016;-71
2021/11/01 00:38:04;;;;;;;;;;;9.60;1.00;;;;;;4990501;28;19918;-71
2021/11/01 00:40:29;;;;;;;;;;;9.70;1.00;;;;;;4989080;28;19918;-71
2021/11/01 00:42:55;;;;;;;;;;;9.80;1.00;;;;;;4989509;28;20651;-71
2021/11/01 00:45:20;;;;;;;;;;;9.90;1.00;;;;;;4989315;28;19924;-71
2021/11/01 00:47:46;;;;;;;;;;;9.90;1.00;;;;;;4992814;28;19925;-72
2021/11/01 00:50:11;;;;;;;;;;;10.00;1.00;;;;;;4986524;28;19914;-73
2021/11/01 00:52:37;;;;;;;;;;;10.00;1.00;;;;;;4992841;28;19953;-71
2021/11/01 00:55:05;;;;;;;;;;;10.00;1.00;;;;;;4991593;28;19968;-73
2021/11/01 00:57:31;;;;;;;;;;;10.00;1.00;;;;;;4992756;28;20362;-73
2021/11/01 00:59:59;;;;;;;;;;;10.00;1.00;;;;;;4992035;28;19960;-73
2021/11/01 01:02:25;;;;;;;;;;;10.00;1.00;;;;;;4993049;28;19913;-72
2021/11/01 01:04:51;;;;;;;;;;;10.10;1.00;;;;;;4991935;28;19918;-73
2021/11/01 01:07:16;;;;;;;;;;;10.10;1.00;;;;;;4998445;28;19914;-71
2021/11/01 01:09:42;;;;;;;;;;;10.10;1.00;;;;;;4998564;28;20256;-72
2021/11/01 01:12:08;;;;;;;;;;;10.10;1.00;;;;;;4998170;28;19914;-72
2021/11/01 01:14:41;;;;;;;;;;;10.10;1.00;;;;;;4999681;28;20055;-73
2021/11/01 01:17:07;;;;;;;;;;;10.10;1.00;;;;;;4999187;28;19917;-73
2021/11/01 01:19:44;;;;;;;;;;;10.10;1.00;;;;;;4998470;28;19939;-72
2021/11/01 01:22:13;;;;;;;;;;;10.10;1.00;;;;;;4998455;28;19917;-72
2021/11/01 01:24:39;;;;;;;;;;;10.10;1.00;;;;;;4996148;28;20014;-73
2021/11/01 01:27:05;;;;;;;;;;;10.10;1.00;;;;;;4998402;28;19914;-73
2021/11/01 01:29:31;;;;;;;;;;;10.10;1.00;;;;;;4998031;28;19924;-72
2021/11/01 01:31:56;;;;;;;;;;;10.20;1.00;;;;;;4997396;28;19920;-72
2021/11/01 01:34:23;;;;;;;;;;;10.10;1.00;;;;;;4997915;28;19976;-72
2021/11/01 01:36:49;;;;;;;;;;;10.20;1.00;;;;;;4999005;28;19937;-73
2021/11/01 01:39:15;;;;;;;;;;;10.20;1.00;;;;;;4997135;28;19922;-72
2021/11/01 01:41:45;;;;;;;;;;;10.20;1.00;;;;;;4986633;28;19972;-72
2021/11/01 01:44:11;;;;;;;;;;;10.20;1.00;;;;;;4997523;28;19922;-73
2021/11/01 01:46:37;;;;;;;;;;;10.20;1.00;;;;;;4997952;28;19929;-73
2021/11/01 01:49:03;;;;;;;;;;;10.10;1.00;;;;;;4997311;28;19921;-73
2021/11/01 01:51:29;;;;;;;;;;;10.10;1.00;;;;;;4997461;28;19913;-74
2021/11/01 01:53:55;;;;;;;;;;;10.00;1.00;;;;;;4997052;28;19914;-74
2021/11/01 01:56:23;;;;;;;;;;;10.00;1.00;;;;;;4997400;28;20009;-72
2021/11/01 01:58:54;;;;;;;;;;;9.90;1.00;;;;;;4998476;28;19914;-74
2021/11/01 02:01:21;;;;;;;;;;;9.90;1.00;;;;;;4995815;28;19937;-73
2021/11/01 02:03:48;;;;;;;;;;;9.90;1.00;;;;;;4997221;28;19956;-74
2021/11/01 02:06:34;;;;;;;;;;;9.80;1.00;;;;;;4997754;28;19945;-73
2021/11/01 02:09:04;;;;;;;;;;;9.80;1.00;;;;;;4998194;28;19914;-74
2021/11/01 02:11:53;;;;;;;;;;;9.80;1.00;;;;;;4997720;28;19914;-73
2021/11/01 02:14:19;;;;;;;;;;;9.70;1.00;;;;;;4992264;28;19918;-73
2021/11/01 02:16:47;;;;;;;;;;;9.70;1.00;;;;;;4998108;28;19917;-74
2021/11/01 02:19:15;;;;;;;;;;;9.60;1.00;;;;;;4994888;28;19968;-73
2021/11/01 02:21:48;;;;;;;;;;;9.60;1.00;;;;;;4995728;28;19918;-74
2021/11/01 02:24:32;;;;;;;;;;;9.50;1.00;;;;;;4989995;28;20025;-72
2021/11/01 02:26:58;;;;;;;;;;;9.50;1.00;;;;;;4995498;28;19918;-74
2021/11/01 02:29:26;;;;;;;;;;;9.50;1.00;;;;;;4993552;28;19925;-72
2021/11/01 02:31:53;;;;;;;;;;;9.40;1.00;;;;;;4986934;28;19959;-74
2021/11/01 02:34:19;;;;;;;;;;;9.30;1.00;;;;;;4992841;28;19913;-73
2021/11/01 02:36:46;;;;;;;;;;;9.30;1.00;;;;;;4996046;28;19921;-73
2021/11/01 02:39:11;;;;;;;;;;;9.30;1.00;;;;;;4993362;28;19958;-73
2021/11/01 02:41:37;;;;;;;;;;;9.20;1.00;;;;;;4995545;28;19917;-73
2021/11/01 02:44:06;;;;;;;;;;;9.20;1.00;;;;;;4994566;28;20288;-73
2021/11/01 02:46:32;;;;;;;;;;;9.30;1.00;;;;;;4993890;28;19934;-74
2021/11/01 02:48:58;;;;;;;;;;;9.30;1.00;;;;;;4994385;28;19968;-74
2021/11/01 02:51:25;;;;;;;;;;;9.30;1.00;;;;;;4994349;28;19913;-74
2021/11/01 02:53:51;;;;;;;;;;;9.40;1.00;;;;;;4993559;28;20028;-72
2021/11/01 02:56:17;;;;;;;;;;;9.50;1.00;;;;;;4992883;28;20339;-72
2021/11/01 02:58:43;;;;;;;;;;;9.50;1.00;;;;;;4993798;28;19956;-72
2021/11/01 03:01:10;;;;;;;;;;;9.50;1.00;;;;;;4992891;28;19914;-72
2021/11/01 03:03:37;;;;;;;;;;;9.50;1.00;;;;;;4992354;28;19929;-73
2021/11/01 03:06:03;;;;;;;;;;;9.60;1.00;;;;;;4991699;28;19922;-73
2021/11/01 03:08:28;;;;;;;;;;;9.70;1.00;;;;;;4992248;28;19921;-73
2021/11/01 03:10:55;;;;;;;;;;;9.70;1.00;;;;;;4990760;28;19914;-73
2021/11/01 03:13:21;;;;;;;;;;;9.80;1.00;;;;;;4990900;28;20016;-74
2021/11/01 03:15:48;;;;;;;;;;;9.80;1.00;;;;;;4990243;28;20370;-73
2021/11/01 03:18:13;;;;;;;;;;;9.80;1.00;;;;;;4987076;28;20042;-72
2021/11/01 03:20:42;;;;;;;;;;;9.90;1.00;;;;;;4990915;28;20000;-72
2021/11/01 03:23:10;;;;;;;;;;;9.90;1.00;;;;;;4987810;28;20343;-72
2021/11/01 03:25:41;;;;;;;;;;;9.90;1.00;;;;;;4990327;28;19958;-72
2021/11/01 03:28:08;;;;;;;;;;;10.00;1.00;;;;;;4990617;28;19917;-73
2021/11/01 03:30:34;;;;;;;;;;;10.00;1.00;;;;;;4989284;28;20386;-72
2021/11/01 03:33:01;;;;;;;;;;;10.00;1.00;;;;;;4988633;28;19918;-72
2021/11/01 03:35:27;;;;;;;;;;;10.00;1.00;;;;;;4988792;28;19921;-73
2021/11/01 03:37:56;;;;;;;;;;;10.00;1.00;;;;;;4990848;28;19948;-73
2021/11/01 03:40:22;;;;;;;;;;;10.10;1.00;;;;;;4989889;28;19969;-73
2021/11/01 03:42:48;;;;;;;;;;;10.10;1.00;;;;;;4990423;28;19914;-72
2021/11/01 03:45:14;;;;;;;;;;;10.10;1.00;;;;;;4989828;28;19928;-71
2021/11/01 03:47:46;;;;;;;;;;;10.10;1.00;;;;;;4990717;28;19918;-73
2021/11/01 03:52:49;;;;;;;;;;;10.20;1.00;;;;;;4990186;28;19957;-72
2021/11/01 03:55:16;;;;;;;;;;;10.30;1.00;;;;;;4989479;28;20252;-73
2021/11/01 03:57:42;;;;;;;;;;;10.30;1.00;;;;;;4990916;28;19925;-73
2021/11/01 04:00:08;;;;;;;;;;;10.30;1.00;;;;;;4989335;28;19918;-72
2021/11/01 04:02:34;;;;;;;;;;;10.30;1.00;;;;;;4989889;28;19925;-73
2021/11/01 04:05:01;;;;;;;;;;;10.40;1.00;;;;;;4989776;28;20528;-73
2021/11/01 04:07:26;;;;;;;;;;;10.40;1.00;;;;;;4990396;28;20494;-75
2021/11/01 04:09:52;;;;;;;;;;;10.40;1.00;;;;;;4989464;28;20016;-73
2021/11/01 04:12:18;;;;;;;;;;;10.40;1.00;;;;;;4989654;28;19921;-73
2021/11/01 04:14:50;;;;;;;;;;;10.30;1.00;;;;;;4990525;28;19944;-73
2021/11/01 04:17:27;;;;;;;;;;;10.30;1.00;;;;;;4990371;28;19928;-72
2021/11/01 04:20:00;;;;;;;;;;;10.30;1.00;;;;;;4990014;28;20015;-72
2021/11/01 04:22:28;;;;;;;;;;;10.40;1.00;;;;;;4989540;28;19917;-72
2021/11/01 04:24:54;;;;;;;;;;;10.40;1.00;;;;;;4982591;28;20004;-73
2021/11/01 04:27:20;;;;;;;;;;;10.40;1.00;;;;;;4990792;28;20005;-72
2021/11/01 04:29:45;;;;;;;;;;;10.40;1.00;;;;;;4990332;28;19917;-72
2021/11/01 04:32:17;;;;;;;;;;;10.40;1.00;;;;;;4989890;28;19917;-72
2021/11/01 04:34:48;;;;;;;;;;;10.50;1.00;;;;;;4991004;28;19917;-73
2021/11/01 04:37:14;;;;;;;;;;;10.50;1.00;;;;;;4990382;28;19920;-73
2021/11/01 04:40:27;;;;;;;;;;;10.60;1.00;;;;;;4987082;28;19918;-72
2021/11/01 04:53:27;;;;;;;;;;;11.30;1.00;;;;;;4990954;28;19976;-74
2021/11/01 04:55:53;;;;;;;;;;;11.40;1.00;;;;;;4991021;28;19968;-73
2021/11/01 04:58:19;;;;;;;;;;;11.50;1.00;;;;;;4992453;28;20330;-74
2021/11/01 05:00:46;;;;;;;;;;;11.50;1.00;;;;;;4990647;28;19914;-73
2021/11/01 05:03:24;;;;;;;;;;;11.60;1.00;;;;;;4981941;28;19918;-73
2021/11/01 05:05:51;;;;;;;;;;;11.70;1.00;;;;;;4991798;28;20008;-73
2021/11/01 05:08:18;;;;;;;;;;;11.70;1.00;;;;;;4993105;28;19926;-72
2021/11/01 05:10:46;;;;;;;;;;;11.70;1.00;;;;;;4991199;28;19920;-73
2021/11/01 05:13:46;;;;;;;;;;;11.70;1.00;;;;;;4992052;28;20314;-73
2021/11/01 05:16:13;;;;;;;;;;;11.80;1.00;;;;;;4988910;28;19918;-73
2021/11/01 05:19:01;;;;;;;;;;;11.80;1.00;;;;;;4998342;28;19918;-73
2021/11/01 05:21:34;;;;;;;;;;;11.80;1.00;;;;;;4996839;28;19914;-73
2021/11/01 05:24:06;;;;;;;;;;;11.80;1.00;;;;;;4985783;28;20430;-72
2021/11/01 05:26:55;;;;;;;;;;;11.90;1.00;;;;;;4989312;28;19922;-73
2021/11/01 05:29:20;;;;;;;;;;;11.90;1.00;;;;;;4989688;28;19936;-74
2021/11/01 05:32:11;;;;;;;;;;;11.90;1.00;;;;;;4990628;28;19926;-73
2021/11/01 05:34:34;;;;;;;;;;;11.90;1.00;;;;;;4990420;28;19914;-73
2021/11/01 05:37:01;;;;;;;;;;;11.90;1.00;;;;;;4990517;28;19937;-73
2021/11/01 05:39:26;;;;;;;;;;;11.90;1.00;;;;;;4991563;28;19944;-73
2021/11/01 05:41:52;;;;;;;;;;;11.90;1.00;;;;;;4991243;28;19918;-73
2021/11/01 05:44:18;;;;;;;;;;;11.90;1.00;;;;;;4990303;28;19941;-72
2021/11/01 05:46:46;;;;;;;;;;;11.90;1.00;;;;;;4990791;28;19918;-72
2021/11/01 05:49:11;;;;;;;;;;;11.90;1.00;;;;;;4990594;28;19918;-70
2021/11/01 05:51:37;;;;;;;;;;;12.00;1.00;;;;;;4990889;28;19924;-73
2021/11/01 05:54:06;;;;;;;;;;;11.90;1.00;;;;;;4993010;28;19925;-75
2021/11/01 06:14:30;;;;;;;;;;;11.90;1.00;;;;;;4995344;28;19925;-74
2021/11/01 06:16:55;;;;;;;;;;;11.90;1.00;;;;;;4990217;28;19917;-75
2021/11/01 06:19:21;;;;;;;;;;;11.90;1.00;;;;;;4993424;28;19914;-75
2021/11/01 06:21:48;;;;;;;;;;;11.90;1.00;;;;;;4994179;28;19914;-72
2021/11/01 06:26:51;;;;;;;;;;;11.90;1.00;;;;;;4995061;28;19917;-73
2021/11/01 06:29:20;;;;;;;;;;;11.90;1.00;;;;;;4995087;28;19921;-73
2021/11/01 06:31:57;;;;;;;;;;;11.90;1.00;;;;;;4994452;28;19936;-73
2021/11/01 07:17:05;;;;;;;;;;;12.00;1.00;;;;;;5071215;28;20018;-74
2021/11/01 07:25:07;;;;;;;;;;;11.90;1.00;;;;;;5070396;28;19916;-76
2021/11/01 08:38:02;;;;;;;;;;;11.80;99.90;;;;;;5063101;28;20356;-74
2021/11/01 08:40:41;;;;;;;;;;;11.80;99.90;;;;;;5068296;28;19920;-75
2021/11/01 08:43:27;;;;;;;;;;;11.80;1.00;;;;;;5062354;28;19912;-75
2021/11/01 08:46:16;;;;;;;;;;;11.90;1.00;;;;;;5061252;28;19916;-75
2021/11/01 09:05:02;;;;;;;;;;;11.60;1.00;;;;;;5064935;28;19921;-74
2021/11/01 09:25:55;;;;;;;;;;;11.20;99.90;;;;;;5059850;28;20261;-74
2021/11/01 09:38:55;;;;;;;;;;;11.30;99.90;;;;;;5069715;28;20098;-74
2021/11/01 09:41:22;;;;;;;;;;;11.40;99.90;;;;;;5071675;28;19921;-74
2021/11/01 09:43:51;;;;;;;;;;;11.40;1.00;;;;;;5070187;28;20479;-75
2021/11/01 09:46:17;;;;;;;;;;;11.50;1.00;;;;;;5068470;28;19909;-75
2021/11/01 09:48:42;;;;;;;;;;;11.50;1.00;;;;;;5076060;28;19913;-76
2021/11/01 09:51:11;;;;;;;;;;;11.50;1.00;;;;;;5074869;28;19962;-74
2021/11/01 09:53:41;;;;;;;;;;;11.50;1.00;;;;;;5073677;28;19913;-75
2021/11/01 09:56:19;;;;;;;;;;;11.50;40.30;;;;;;5074206;28;19966;-74
2021/11/01 10:01:29;;;;;;;;;;;11.60;97.90;;;;;;5072436;28;19970;-74
2021/11/01 10:03:55;;;;;;;;;;;11.60;99.90;;;;;;5072178;28;19920;-74
2021/11/01 10:06:24;;;;;;;;;;;11.60;99.90;;;;;;5072340;28;19912;-76
2021/11/01 10:08:57;;;;;;;;;;;11.60;88.80;;;;;;5069496;28;19916;-75
2021/11/01 10:11:24;;;;;;;;;;;11.50;25.80;;;;;;5072531;28;19924;-75
2021/11/01 10:13:52;;;;;;;;;;;11.50;1.00;;;;;;5071821;28;20406;-76
2021/11/01 10:19:14;;;;;;;;;;;11.40;99.90;;;;;;5072708;28;19927;-75
2021/11/01 10:21:49;;;;;;;;;;;11.40;99.90;;;;;;5072710;28;19966;-76
2021/11/01 10:24:21;;;;;;;;;;;11.50;99.90;;;;;;5072150;28;19916;-76
2021/11/01 10:26:47;;;;;;;;;;;11.50;99.90;;;;;;5075088;28;20026;-76
2021/11/01 10:29:13;;;;;;;;;;;11.60;99.90;;;;;;5072473;28;20390;-74
2021/11/01 10:31:45;;;;;;;;;;;11.70;99.90;;;;;;5072032;28;19924;-74
2021/11/01 10:34:12;;;;;;;;;;;11.80;1.00;;;;;;5071789;28;19917;-74
2021/11/01 10:36:39;;;;;;;;;;;11.80;43.20;;;;;;5073662;28;19936;-74
2021/11/01 10:39:13;;;;;;;;;;;12.00;1.00;;;;;;5066723;28;19999;-74
2021/11/01 10:41:46;;;;;;;;;;;12.20;1.00;;;;;;5066728;28;20322;-75
2021/11/01 10:58:21;;;;;;;;;;;11.70;99.90;;;;;;5072562;28;20011;-74
2021/11/01 11:14:34;;;;;;;;;;;11.40;99.90;;;;;;5072061;28;19935;-73
2021/11/01 11:22:52;;;;;;;;;;;11.40;99.90;;;;;;5062759;28;19951;-74
2021/11/01 11:25:36;;;;;;;;;;;11.50;99.90;;;;;;5063305;28;20354;-74
2021/11/01 11:31:21;;;;;;;;;;;11.60;99.90;;;;;;5035285;28;19920;-74
2021/11/01 11:47:42;;;;;;;;;;;11.70;45.00;;;;;;5032183;28;20384;-74
2021/11/01 11:50:18;;;;;;;;;;;11.70;99.90;;;;;;5069130;28;19913;-74
2021/11/01 11:52:44;;;;;;;;;;;11.70;99.90;;;;;;5068804;28;20011;-75
2021/11/01 11:55:14;;;;;;;;;;;11.60;1.00;;;;;;5069493;28;20007;-74
2021/11/01 11:57:40;;;;;;;;;;;11.60;1.00;;;;;;5069769;28;19920;-74
2021/11/01 12:00:09;;;;;;;;;;;11.50;1.00;;;;;;5069097;28;19922;-75
2021/11/01 12:02:39;;;;;;;;;;;11.40;1.00;;;;;;5069777;28;19928;-74
2021/11/01 12:05:10;;;;;;;;;;;11.40;44.20;;;;;;5069797;28;19924;-74
2021/11/01 12:07:46;;;;;;;;;;;11.30;81.50;;;;;;5070295;28;20377;-74
2021/11/01 12:10:19;;;;;;;;;;;11.20;99.90;;;;;;5068252;28;20027;-74
2021/11/01 12:17:55;;;;;;;;;;;11.20;99.90;;;;;;5069742;28;20006;-75
2021/11/01 12:20:22;;;;;;;;;;;11.20;1.00;;;;;;5068537;28;19916;-74
2021/11/01 12:22:51;;;;;;;;;;;11.20;1.00;;;;;;5069765;28;19956;-73
2021/11/01 12:25:19;;;;;;;;;;;11.10;1.00;;;;;;5068723;28;19963;-74
2021/11/01 12:27:55;;;;;;;;;;;11.10;1.00;;;;;;5073240;28;19966;-74
2021/11/01 12:30:24;;;;;;;;;;;11.10;1.00;;;;;;5065892;28;19912;-75
2021/11/01 12:32:50;;;;;;;;;;;11.10;1.00;;;;;;5068926;28;19916;-75
2021/11/01 12:35:23;;;;;;;;;;;11.00;1.00;;;;;;5069552;28;19913;-75
2021/11/01 12:38:03;;;;;;;;;;;11.00;1.00;;;;;;5070485;28;19909;-74
2021/11/01 12:41:01;;;;;;;;;;;11.00;1.00;;;;;;5069390;28;19912;-75
2021/11/01 12:57:18;;;;;;;;;;;10.90;1.00;;;;;;4954918;28;20394;-75
2021/11/01 12:59:49;;;;;;;;;;;10.90;1.00;;;;;;4948386;29;19914;-75
2021/11/01 13:02:24;;;;;;;;;;;10.90;1.00;;;;;;4963299;28;20231;-75
2021/11/01 13:04:50;;;;;;;;;;;10.80;1.00;;;;;;4967202;28;19957;-75
2021/11/01 13:13:21;;;;;;;;;;;10.80;1.00;;;;;;4965253;28;20273;-76
2021/11/01 13:18:28;;;;;;;;;;;10.70;1.00;;;;;;4967446;28;19964;-74
2021/11/01 13:20:58;;;;;;;;;;;10.50;1.00;;;;;;4967083;28;19994;-74
2021/11/01 13:23:25;;;;;;;;;;;10.50;1.00;;;;;;5005173;28;19914;-73
2021/11/01 13:36:28;;;;;;;;;;;10.20;1.00;;;;;;5006663;28;19928;-77
2021/11/01 13:38:57;;;;;;;;;;;10.00;1.00;;;;;;5007935;28;20354;-76
2021/11/01 13:41:29;;;;;;;;;;;10.00;1.00;;;;;;5007091;28;19959;-75
2021/11/01 13:44:15;;;;;;;;;;;10.00;1.00;;;;;;5007022;28;19931;-76
2021/11/01 13:46:42;;;;;;;;;;;10.00;1.00;;;;;;5007401;28;19971;-76
2021/11/01 13:49:08;;;;;;;;;;;10.00;1.00;;;;;;5008537;28;20036;-76
2021/11/01 13:51:33;;;;;;;;;;;10.00;1.00;;;;;;5008204;28;20447;-76
2021/11/01 13:56:47;;;;;;;;;;;10.10;1.00;;;;;;5005984;28;19921;-76
2021/11/01 14:26:49;;;;;;;;;;;10.20;1.00;;;;;;5010203;28;19920;-76
2021/11/01 14:29:29;;;;;;;;;;;10.20;1.00;;;;;;5011135;28;19920;-74
2021/11/01 14:32:30;;;;;;;;;;;10.20;1.00;;;;;;5008861;28;19921;-76
2021/11/01 15:08:28;;;;;;;;;;;10.10;1.00;;;;;;5005920;28;20083;-76
2021/11/01 15:21:27;;;;;;;;;;;10.10;1.00;;;;;;5009733;28;19921;-76
2021/11/01 16:18:15;;;;;;;;;;;10.00;1.00;;;;;;5009726;28;19917;-74
2021/11/01 16:20:42;;;;;;;;;;;10.00;1.00;;;;;;5007543;28;19924;-77
2021/11/01 16:25:34;;;;;;;;;;;10.00;1.00;;;;;;5006943;28;19967;-77
2021/11/01 16:28:00;;;;;;;;;;;10.00;1.00;;;;;;5009177;28;20350;-76
2021/11/01 16:30:29;;;;;;;;;;;9.90;1.00;;;;;;5007058;28;19970;-76
2021/11/01 16:33:00;;;;;;;;;;;9.90;1.00;;;;;;5008891;28;19964;-76
2021/11/01 16:35:32;;;;;;;;;;;9.80;1.00;;;;;;5007832;28;20325;-76
2021/11/01 16:38:06;;;;;;;;;;;9.70;1.00;;;;;;5008569;28;19913;-76
2021/11/01 16:40:32;;;;;;;;;;;9.70;1.00;;;;;;5007434;28;20485;-76
2021/11/01 16:42:58;;;;;;;;;;;9.70;1.00;;;;;;5008935;28;20016;-76
2021/11/01 16:47:49;;;;;;;;;;;9.50;1.00;;;;;;5008827;28;19986;-76
2021/11/01 16:50:16;;;;;;;;;;;9.50;1.00;;;;;;5007756;28;19932;-76
2021/11/01 16:52:44;;;;;;;;;;;9.30;1.00;;;;;;5008124;28;19936;-75
2021/11/01 16:55:21;;;;;;;;;;;9.30;1.00;;;;;;5007447;28;19922;-77
2021/11/01 16:58:03;;;;;;;;;;;9.30;1.00;;;;;;5009207;28;20338;-76
2021/11/01 17:03:15;;;;;;;;;;;8.90;1.00;;;;;;5010018;28;20354;-76
2021/11/01 17:09:02;;;;;;;;;;;8.90;1.00;;;;;;5009335;28;20256;-76
2021/11/01 17:27:33;;;;;;;;;;;8.60;1.00;;;;;;5009128;28;19929;-76
2021/11/01 17:35:29;;;;;;;;;;;8.50;1.00;;;;;;5007981;28;20012;-76
2021/11/01 18:40:52;;;;;;;;;;;8.90;1.00;;;;;;5006312;28;19920;-75
2021/11/01 18:51:32;;;;;;;;;;;8.90;1.00;;;;;;5027423;28;19971;-75
2021/11/01 18:54:16;;;;;;;;;;;8.80;1.00;;;;;;5001556;28;19917;-75
2021/11/01 18:56:42;;;;;;;;;;;8.80;1.00;;;;;;5007895;28;20059;-75
2021/11/01 18:59:08;;;;;;;;;;;8.80;1.00;;;;;;5007845;28;20036;-75
2021/11/01 19:01:35;;;;;;;;;;;8.80;1.00;;;;;;5007267;28;19968;-72
2021/11/01 19:04:03;;;;;;;;;;;8.80;1.00;;;;;;4998149;28;20282;-73
2021/11/01 19:06:46;;;;;;;;;;;8.90;1.00;;;;;;5007383;28;19941;-73
2021/11/01 19:09:37;;;;;;;;;;;8.90;1.00;;;;;;4996726;28;20000;-75
2021/11/01 19:15:48;;;;;;;;;;;9.00;1.00;;;;;;5003479;28;19924;-73
2021/11/01 20:02:32;;;;;;;;;;;9.00;1.00;;;;;;5007886;28;19913;-75
2021/11/01 21:27:13;;;;;;;;;;;8.80;1.00;;;;;;5013489;28;19979;-74
2021/11/01 21:29:39;;;;;;;;;;;8.80;1.00;;;;;;5010753;28;19932;-73
2021/11/01 21:32:05;;;;;;;;;;;8.80;1.00;;;;;;5009531;28;19910;-73
2021/11/01 21:34:35;;;;;;;;;;;8.80;1.00;;;;;;5009494;28;19909;-73
2021/11/01 21:37:02;;;;;;;;;;;8.80;1.00;;;;;;5010002;28;19948;-72
2021/11/01 21:39:28;;;;;;;;;;;8.80;1.00;;;;;;5009089;28;19974;-74
2021/11/01 21:41:54;;;;;;;;;;;8.90;1.00;;;;;;5007748;28;20657;-74
2021/11/01 21:44:20;;;;;;;;;;;8.90;1.00;;;;;;5009954;28;19917;-72
2021/11/01 21:46:45;;;;;;;;;;;8.80;1.00;;;;;;5009510;28;19914;-73
2021/11/01 21:49:11;;;;;;;;;;;8.90;1.00;;;;;;5009572;28;19920;-73
2021/11/01 21:51:38;;;;;;;;;;;8.90;1.00;;;;;;5009999;28;19996;-74
2021/11/01 21:56:41;;;;;;;;;;;8.90;1.00;;;;;;5009337;28;20005;-74
2021/11/01 22:18:19;;;;;;;;;;;8.00;1.00;;;;;;5009157;28;19944;-73
2021/11/01 22:20:49;;;;;;;;;;;7.90;1.00;;;;;;5007986;28;19972;-73
2021/11/01 22:26:09;;;;;;;;;;;7.70;1.00;;;;;;4997486;28;20012;-74
2021/11/01 22:34:20;;;;;;;;;;;7.60;1.00;;;;;;5007774;28;20020;-73
2021/11/01 22:47:22;;;;;;;;;;;7.40;1.00;;;;;;5028263;28;20016;-73
2021/11/01 22:55:43;;;;;;;;;;;7.20;1.00;;;;;;5030483;28;19909;-74
2021/11/01 22:58:09;;;;;;;;;;;7.20;1.00;;;;;;5030662;28;20682;-73
2021/11/01 23:00:38;;;;;;;;;;;7.20;1.00;;;;;;5027710;28;19928;-74
2021/11/01 23:03:09;;;;;;;;;;;7.20;1.00;;;;;;5019115;28;20356;-73
2021/11/01 23:06:09;;;;;;;;;;;7.20;1.00;;;;;;5030585;28;20432;-73
2021/11/01 23:33:09;;;;;;;;;;;6.70;1.00;;;;;;4997258;28;19910;-75
2021/11/01 23:35:34;;;;;;;;;;;6.70;1.00;;;;;;5013205;28;19921;-75
2021/11/01 23:38:01;;;;;;;;;;;6.60;1.00;;;;;;5013045;28;19914;-75
2021/11/01 23:40:27;;;;;;;;;;;6.60;1.00;;;;;;5011976;28;20262;-75
2021/11/01 23:42:52;;;;;;;;;;;6.50;1.00;;;;;;5012857;28;19914;-74
2021/11/01 23:45:18;;;;;;;;;;;6.50;1.00;;;;;;5012584;28;19917;-74
2021/11/01 23:47:43;;;;;;;;;;;6.50;1.00;;;;;;5013005;28;20352;-74
2021/11/01 23:50:09;;;;;;;;;;;6.60;1.00;;;;;;5013215;28;20345;-75
2021/11/01 23:52:52;;;;;;;;;;;6.60;1.00;;;;;;5012974;28;19909;-75
2021/11/01 23:55:17;;;;;;;;;;;6.70;1.00;;;;;;5012758;28;19914;-76
2021/11/01 23:57:43;;;;;;;;;;;6.70;1.00;;;;;;5012436;28;19924;-74
